Time;durP1;ratioP1;P1;durP2;ratioP2;P2;SDS_P1;SDS_P2;PMS_P1;PMS_P2;Temp;Humidity;BMP_temperature;BMP_pressure;BME280_temperature;BME280_humidity;BME280_pressure;Samples;Min_cycle;Max_cycle;Signal;HPM_P1;HPM_P2
2023/02/02 00:01:09;;;;;;;7.77;2.47;;;;;;;7.45;60.83;98051.88;8449034;28;20224;-67
2023/02/02 00:05:12;;;;;;;10.43;2.70;;;;;;;7.55;60.97;98044.69;8449063;28;20227;-67
2023/02/02 00:09:18;;;;;;;11.43;3.10;;;;;;;7.52;61.30;98031.91;8448828;28;20231;-67
2023/02/02 00:13:21;;;;;;;11.33;2.67;;;;;;;7.36;62.07;98044.41;8448813;28;20250;-67
2023/02/02 00:17:25;;;;;;;10.80;2.77;;;;;;;7.58;61.27;98030.00;8448648;28;20238;-67
2023/02/02 00:21:28;;;;;;;11.60;2.70;;;;;;;7.57;61.15;98019.72;8448663;28;20227;-67
2023/02/02 00:25:31;;;;;;;10.80;2.47;;;;;;;7.68;61.00;98025.38;8448399;28;20223;-67
2023/02/02 00:29:34;;;;;;;7.03;2.20;;;;;;;7.65;61.56;98033.19;8448245;28;20412;-67
2023/02/02 00:33:38;;;;;;;10.40;2.80;;;;;;;7.43;62.54;98028.72;8448102;28;20227;-67
2023/02/02 00:37:41;;;;;;;10.63;2.80;;;;;;;7.53;62.95;98041.34;8447607;28;20269;-67
2023/02/02 00:41:44;;;;;;;9.80;2.50;;;;;;;7.55;62.33;98061.00;8447788;28;20223;-67
2023/02/02 00:45:47;;;;;;;11.20;2.73;;;;;;;7.34;63.01;97999.81;8447620;28;20232;-68
2023/02/02 00:49:51;;;;;;;9.20;2.80;;;;;;;7.52;64.02;98061.09;8447650;28;20230;-67
2023/02/02 00:53:54;;;;;;;7.17;2.93;;;;;;;7.54;64.41;98067.06;8447470;28;20235;-67
2023/02/02 00:57:58;;;;;;;1.47;0.50;;;;;;;7.21;62.99;98081.78;8446910;28;20561;-67
2023/02/02 01:02:00;;;;;;;1.67;0.60;;;;;;;7.13;62.20;98089.72;8447134;28;20234;-67
2023/02/02 01:06:05;;;;;;;1.17;0.33;;;;;;;7.17;61.47;98095.63;8447107;28;20275;-68
2023/02/02 01:10:14;;;;;;;0.40;0.23;;;;;;;6.46;61.76;98062.38;8446598;28;20219;-67
2023/02/02 01:14:17;;;;;;;0.50;0.50;;;;;;;6.53;63.15;98103.38;8446626;28;20223;-67
2023/02/02 01:18:20;;;;;;;0.90;0.50;;;;;;;6.68;62.94;98095.25;8446890;28;20227;-67
2023/02/02 01:22:24;;;;;;;0.73;0.40;;;;;;;6.66;62.24;98138.19;8446775;28;20224;-67
2023/02/02 01:26:27;;;;;;;0.47;0.37;;;;;;;6.02;60.64;98014.66;8446701;28;20243;-67
2023/02/02 01:30:30;;;;;;;0.10;0.10;;;;;;;6.61;60.52;98125.44;8446480;28;20329;-67
2023/02/02 01:34:33;;;;;;;0.10;0.10;;;;;;;6.30;60.21;98119.38;8446055;28;20539;-67
2023/02/02 01:38:37;;;;;;;0.47;0.20;;;;;;;6.69;59.87;98148.41;8446011;28;20308;-67
2023/02/02 01:42:40;;;;;;;0.10;0.10;;;;;;;6.87;59.55;98125.66;8446296;28;20235;-68
2023/02/02 01:46:43;;;;;;;0.40;0.30;;;;;;;6.49;60.53;98138.63;8445434;28;20247;-67
2023/02/02 01:50:48;;;;;;;0.10;0.10;;;;;;;6.41;61.03;98155.97;8445996;28;20238;-67
2023/02/02 01:54:55;;;;;;;0.10;0.10;;;;;;;6.54;60.67;98175.38;8445919;28;20219;-67
2023/02/02 01:58:58;;;;;;;0.20;0.03;;;;;;;5.59;62.21;98146.69;8445300;28;20262;-67
2023/02/02 02:03:04;;;;;;;0.20;0.10;;;;;;;6.16;60.63;98163.44;8445467;28;20276;-67
2023/02/02 02:07:07;;;;;;;0.00;0.00;;;;;;;6.39;59.92;98152.59;8445260;28;20424;-67
2023/02/02 02:11:11;;;;;;;0.10;0.10;;;;;;;6.38;60.27;98143.22;8445250;28;20219;-67
2023/02/02 02:30:11;;;;;;;0.20;0.20;;;;;;;6.49;60.09;98158.34;8334429;28;20234;-67
2023/02/02 02:34:18;;;;;;;0.27;0.10;;;;;;;6.08;61.06;98161.06;8444492;28;20227;-66
2023/02/02 02:38:26;;;;;;;0.00;0.00;;;;;;;5.85;61.94;98167.53;8444287;28;20235;-66
2023/02/02 02:42:31;;;;;;;0.17;0.07;;;;;;;5.90;61.32;98162.25;8444585;28;20289;-67
2023/02/02 02:46:35;;;;;;;0.10;0.10;;;;;;;6.20;60.68;98159.91;8444563;28;20227;-67
2023/02/02 02:50:39;;;;;;;1.07;0.20;;;;;;;6.01;61.18;98172.34;8444665;28;20236;-67
2023/02/02 02:54:45;;;;;;;0.10;0.10;;;;;;;5.98;61.33;98163.00;8443923;28;20234;-67
2023/02/02 02:58:52;;;;;;;0.57;0.20;;;;;;;5.99;61.22;98167.22;8444063;28;20232;-67
2023/02/02 03:02:58;;;;;;;0.53;0.17;;;;;;;5.90;61.28;98169.13;8444411;28;20325;-67
2023/02/02 03:07:07;;;;;;;0.10;0.10;;;;;;;6.03;60.69;98176.56;8444184;28;20235;-67
2023/02/02 03:11:11;;;;;;;0.10;0.10;;;;;;;5.88;61.43;98175.19;8443875;28;20227;-67
2023/02/02 03:15:15;;;;;;;0.30;0.10;;;;;;;5.73;61.46;98154.94;8444263;28;20228;-66
2023/02/02 03:19:18;;;;;;;0.10;0.10;;;;;;;6.35;60.25;98179.28;8444057;28;20333;-67
2023/02/02 03:23:22;;;;;;;0.20;0.10;;;;;;;6.19;60.60;98179.66;8443976;28;20231;-67
2023/02/02 03:27:25;;;;;;;0.37;0.10;;;;;;;6.34;60.48;98175.88;8443793;28;20425;-66
2023/02/02 03:31:28;;;;;;;0.07;0.00;;;;;;;6.02;61.85;98179.19;8443600;28;20227;-67
2023/02/02 03:35:31;;;;;;;0.10;0.10;;;;;;;6.48;60.37;98192.72;8446588;28;20295;-67
2023/02/02 03:39:35;;;;;;;0.20;0.10;;;;;;;6.50;60.40;98178.06;8449674;28;20235;-66
2023/02/02 03:43:38;;;;;;;0.73;0.10;;;;;;;6.66;60.10;98184.50;8449601;28;20523;-66
2023/02/02 03:47:41;;;;;;;0.00;0.00;;;;;;;6.71;59.69;98174.94;8449115;28;20227;-67
2023/02/02 03:51:44;;;;;;;0.10;0.10;;;;;;;6.65;59.83;98182.84;8449454;28;20234;-67
2023/02/02 03:55:48;;;;;;;0.20;0.10;;;;;;;6.61;60.43;98178.66;8449187;28;20546;-67
2023/02/02 03:59:51;;;;;;;0.10;0.10;;;;;;;6.73;59.97;98167.19;8448828;28;20234;-67
2023/02/02 04:03:54;;;;;;;0.87;0.10;;;;;;;6.75;59.95;98165.44;8448909;28;20235;-67
2023/02/02 04:07:57;;;;;;;0.10;0.10;;;;;;;6.91;59.79;98155.56;8448528;28;20440;-67
2023/02/02 04:12:01;;;;;;;0.07;0.07;;;;;;;6.87;59.74;98149.66;8448500;28;20231;-67
2023/02/02 04:16:04;;;;;;;0.60;0.20;;;;;;;6.84;59.95;98154.91;8448603;28;20269;-67
2023/02/02 04:20:08;;;;;;;0.37;0.10;;;;;;;6.98;59.60;98159.69;8448355;28;20231;-67
2023/02/02 04:24:12;;;;;;;0.10;0.10;;;;;;;6.79;59.90;98165.31;8448287;28;20223;-67
2023/02/02 04:28:16;;;;;;;0.67;0.17;;;;;;;6.84;60.29;98168.59;8447901;28;20515;-67
2023/02/02 04:32:19;;;;;;;0.20;0.20;;;;;;;6.71;60.82;98194.72;8447999;28;20264;-67
2023/02/02 04:36:22;;;;;;;0.37;0.33;;;;;;;6.33;61.87;98206.78;8447904;28;20227;-67
2023/02/02 04:40:25;;;;;;;0.20;0.20;;;;;;;6.33;62.02;98204.19;8447727;28;20227;-67
2023/02/02 04:44:29;;;;;;;2.23;0.30;;;;;;;6.31;61.37;98203.41;8447729;28;20231;-67
2023/02/02 04:48:32;;;;;;;0.20;0.10;;;;;;;6.57;60.88;98211.34;8446552;28;20282;-67
2023/02/02 04:52:35;;;;;;;0.27;0.20;;;;;;;6.27;61.70;98207.75;8447385;28;20519;-67
2023/02/02 04:56:38;;;;;;;0.30;0.10;;;;;;;6.60;60.95;98218.13;8447192;28;20228;-67
2023/02/02 05:00:42;;;;;;;0.40;0.20;;;;;;;6.79;60.35;98216.78;8446908;28;20228;-67
2023/02/02 05:04:46;;;;;;;0.30;0.23;;;;;;;6.64;61.39;98222.31;8446412;28;20223;-67
2023/02/02 05:08:49;;;;;;;0.20;0.13;;;;;;;6.48;61.55;98215.88;8446796;28;20247;-67
2023/02/02 05:12:52;;;;;;;0.20;0.20;;;;;;;6.58;60.59;98201.88;8446633;28;20238;-67
2023/02/02 05:16:56;;;;;;;0.40;0.30;;;;;;;6.52;61.43;98212.31;8446468;28;20235;-67
2023/02/02 05:21:00;;;;;;;1.30;0.30;;;;;;;6.61;60.97;98212.94;8446459;28;20242;-67
2023/02/02 05:25:03;;;;;;;0.20;0.20;;;;;;;6.69;60.81;98220.47;8446389;28;20224;-67
2023/02/02 05:29:08;;;;;;;0.17;0.17;;;;;;;6.67;60.75;98221.41;8446154;28;20442;-67
2023/02/02 05:33:12;;;;;;;0.43;0.20;;;;;;;6.74;61.18;98228.06;8445916;28;20231;-67
2023/02/02 05:37:14;;;;;;;0.27;0.27;;;;;;;6.89;61.54;98239.72;8446161;28;20227;-67
2023/02/02 05:41:20;;;;;;;0.20;0.20;;;;;;;7.02;61.73;98234.22;8445558;28;20260;-67
2023/02/02 05:45:23;;;;;;;0.70;0.30;;;;;;;6.69;61.42;98233.34;8445763;28;20238;-67
2023/02/02 05:49:28;;;;;;;1.17;0.27;;;;;;;6.76;61.08;98247.75;8445580;28;20223;-68
2023/02/02 05:53:31;;;;;;;0.27;0.27;;;;;;;6.76;61.20;98249.47;8445795;28;20223;-68
2023/02/02 05:57:34;;;;;;;0.50;0.20;;;;;;;6.71;61.03;98251.34;8445183;28;20396;-68
2023/02/02 06:01:36;;;;;;;0.20;0.20;;;;;;;6.78;60.88;98251.16;8445373;28;20257;-67
2023/02/02 06:05:40;;;;;;;1.03;0.40;;;;;;;6.81;60.98;98257.94;8445412;28;20227;-67
2023/02/02 06:09:43;;;;;;;0.70;0.70;;;;;;;6.77;60.64;98259.72;8444851;28;20223;-68
2023/02/02 06:13:46;;;;;;;0.60;0.60;;;;;;;6.82;60.70;98267.38;8445095;28;20448;-67
2023/02/02 06:17:49;;;;;;;0.47;0.47;;;;;;;6.88;60.00;98250.91;8445244;28;20237;-68
2023/02/02 06:21:53;;;;;;;0.47;0.30;;;;;;;6.88;59.99;98259.47;8445010;28;20223;-67
2023/02/02 06:25:56;;;;;;;0.80;0.50;;;;;;;6.83;60.65;98262.19;8444659;28;20235;-68
2023/02/02 06:29:58;;;;;;;0.90;0.70;;;;;;;6.90;60.49;98265.44;8444817;28;20227;-68
2023/02/02 06:34:01;;;;;;;0.80;0.80;;;;;;;6.85;60.08;98267.28;8444797;28;20548;-68
2023/02/02 06:38:05;;;;;;;0.70;0.70;;;;;;;6.95;60.61;98275.63;8444733;28;20227;-68
2023/02/02 06:42:08;;;;;;;0.93;0.70;;;;;;;6.89;60.55;98268.03;8444502;28;20232;-68
2023/02/02 06:46:23;;;;;;;0.60;0.60;;;;;;;6.88;60.71;98268.94;8444823;28;20415;-68
2023/02/02 06:50:26;;;;;;;0.57;0.50;;;;;;;6.73;61.64;98271.00;8444455;28;20415;-68
2023/02/02 06:54:30;;;;;;;0.60;0.50;;;;;;;6.98;61.17;98270.41;8444417;28;20391;-68
2023/02/02 06:58:33;;;;;;;0.40;0.40;;;;;;;6.33;61.59;98174.16;8444264;28;20228;-68
2023/02/02 07:02:36;;;;;;;0.50;0.37;;;;;;;6.87;61.89;98277.53;8444081;28;20231;-68
2023/02/02 07:06:39;;;;;;;0.67;0.50;;;;;;;6.98;61.82;98278.97;8444115;28;20234;-68
2023/02/02 07:10:44;;;;;;;0.80;0.60;;;;;;;6.99;61.95;98267.78;8446860;28;20219;-67
2023/02/02 07:15:07;;;;;;;0.57;0.57;;;;;;;6.84;62.63;98276.72;8450434;28;20290;-68
2023/02/02 07:19:10;;;;;;;0.50;0.50;;;;;;;7.15;62.18;98278.53;8450223;28;20231;-68
2023/02/02 07:23:13;;;;;;;1.00;0.90;;;;;;;7.12;61.77;98283.78;8450277;28;20223;-68
2023/02/02 07:27:17;;;;;;;0.97;0.90;;;;;;;7.28;61.32;98283.38;8450330;28;20230;-66
2023/02/02 07:31:21;;;;;;;1.30;1.20;;;;;;;7.23;61.59;98283.50;8450189;28;20235;-66
2023/02/02 07:35:24;;;;;;;1.33;1.10;;;;;;;7.29;61.29;98285.06;8449944;28;20286;-66
2023/02/02 07:39:27;;;;;;;0.90;0.80;;;;;;;7.17;61.70;98279.34;8449677;28;20250;-66
2023/02/02 07:43:32;;;;;;;0.80;0.80;;;;;;;7.30;61.26;98285.03;8449521;28;20381;-66
2023/02/02 07:47:35;;;;;;;0.90;0.90;;;;;;;7.30;61.77;98289.34;8449519;28;20243;-67
2023/02/02 07:51:38;;;;;;;1.50;0.80;;;;;;;7.28;61.32;98289.38;8449404;28;20235;-66
2023/02/02 07:55:46;;;;;;;1.93;1.10;;;;;;;7.35;61.23;98269.44;8448909;28;20396;-66
2023/02/02 07:59:51;;;;;;;1.00;1.00;;;;;;;7.22;62.14;98292.97;8449043;28;20228;-67
2023/02/02 08:03:55;;;;;;;1.20;1.10;;;;;;;7.33;61.64;98287.53;8449170;28;20231;-66
2023/02/02 08:07:57;;;;;;;1.30;1.20;;;;;;;7.21;61.58;98293.81;8448877;28;20524;-66
2023/02/02 08:12:01;;;;;;;1.30;1.20;;;;;;;7.32;61.45;98293.56;8448550;28;20297;-66
2023/02/02 08:16:05;;;;;;;1.17;0.80;;;;;;;7.05;61.36;98252.19;8448616;28;20289;-66
2023/02/02 08:20:11;;;;;;;0.90;0.90;;;;;;;7.28;61.68;98289.38;8448276;28;20224;-66
2023/02/02 08:24:14;;;;;;;0.73;0.70;;;;;;;7.23;61.38;98292.09;8448274;28;20228;-66
2023/02/02 08:28:17;;;;;;;0.50;0.50;;;;;;;7.30;61.63;98291.91;8448309;28;20228;-66
2023/02/02 08:32:21;;;;;;;0.70;0.67;;;;;;;7.23;61.54;98294.66;8447897;28;20230;-67
2023/02/02 08:36:26;;;;;;;0.63;0.50;;;;;;;7.28;61.62;98296.28;8448095;28;20230;-66
2023/02/02 08:40:29;;;;;;;0.50;0.43;;;;;;;7.32;61.30;98293.56;8447719;28;20234;-66
2023/02/02 08:44:32;;;;;;;0.97;0.60;;;;;;;7.17;61.07;98302.53;8447957;28;20511;-66
2023/02/02 08:48:56;;;;;;;0.60;0.60;;;;;;;7.17;61.49;98299.94;8447455;28;20409;-67
2023/02/02 08:52:59;;;;;;;1.00;0.53;;;;;;;7.37;60.76;98303.78;8447284;28;20238;-66
2023/02/02 08:57:02;;;;;;;1.23;0.80;;;;;;;7.08;61.48;98304.47;8446945;28;20224;-67
2023/02/02 09:01:06;;;;;;;1.30;1.20;;;;;;;7.19;61.03;98310.22;8447112;28;20541;-66
2023/02/02 09:05:10;;;;;;;10.43;1.70;;;;;;;6.84;62.58;98305.06;8447086;28;20246;-66
2023/02/02 09:09:15;;;;;;;2.30;1.63;;;;;;;7.13;61.12;98303.50;8446812;28;20536;-66
2023/02/02 09:13:18;;;;;;;3.40;1.90;;;;;;;6.91;61.98;98310.91;8446769;28;20565;-66
2023/02/02 09:17:24;;;;;;;2.33;1.50;;;;;;;7.09;61.36;98312.19;8446799;28;20242;-66
2023/02/02 09:21:29;;;;;;;2.37;1.93;;;;;;;7.11;61.83;98314.72;8446199;28;20231;-66
2023/02/02 09:25:31;;;;;;;5.03;2.73;;;;;;;6.99;61.34;98311.56;8446090;28;20423;-66
2023/02/02 09:29:34;;;;;;;5.63;3.63;;;;;;;6.26;62.27;98186.34;8446336;28;20285;-66
2023/02/02 09:33:38;;;;;;;3.50;2.10;;;;;;;6.65;62.38;98308.94;8445348;28;20231;-66
2023/02/02 09:37:44;;;;;;;10.00;7.93;;;;;;;6.70;63.30;98307.13;8446014;28;20216;-66
2023/02/02 09:42:31;;;;;;;11.47;7.07;;;;;;;6.87;62.23;98306.69;8445818;28;20231;-66
2023/02/02 09:46:41;;;;;;;3.17;2.30;;;;;;;7.22;62.23;98318.72;8445007;28;20527;-66
2023/02/02 09:50:47;;;;;;;4.63;2.37;;;;;;;7.15;63.03;98301.72;8445073;28;20245;-66
2023/02/02 09:54:55;;;;;;;1.73;1.63;;;;;;;7.36;63.33;98309.78;8445177;28;20231;-66
2023/02/02 09:58:59;;;;;;;1.70;1.60;;;;;;;7.30;65.18;98317.69;8445081;28;20240;-66
2023/02/02 10:03:24;;;;;;;4.80;2.07;;;;;;;8.67;82.22;98316.44;8445286;28;20446;-67
2023/02/02 10:07:31;;;;;;;4.40;1.47;;;;;;;9.75;71.50;98314.56;8445191;28;20235;-68
2023/02/02 10:11:39;;;;;;;4.33;1.80;;;;;;;11.08;62.81;98313.00;8445138;28;20419;-68
2023/02/02 10:15:45;;;;;;;5.90;1.80;;;;;;;11.25;59.93;98309.72;8444625;28;20527;-68
2023/02/02 10:19:50;;;;;;;5.03;2.07;;;;;;;10.72;58.25;98285.09;8444788;28;20238;-67
2023/02/02 10:23:54;;;;;;;5.03;2.50;;;;;;;9.72;63.06;98293.97;8444700;28;20222;-68
2023/02/02 10:28:04;;;;;;;5.07;2.30;;;;;;;8.88;65.23;98302.84;8444566;28;20237;-68
2023/02/02 10:32:15;;;;;;;8.83;2.30;;;;;;;8.83;66.50;98301.31;8444616;28;20545;-67
2023/02/02 10:36:23;;;;;;;6.43;2.43;;;;;;;8.58;68.06;98302.06;8444492;28;20287;-67
2023/02/02 10:40:37;;;;;;;5.97;2.17;;;;;;;8.60;67.89;98298.56;8444473;28;20233;-67
2023/02/02 10:44:47;;;;;;;4.77;2.30;;;;;;;8.55;68.42;98297.03;8446596;28;20250;-68
2023/02/02 10:48:51;;;;;;;7.73;2.53;;;;;;;8.36;69.25;98294.97;8451025;28;20219;-68
2023/02/02 10:52:55;;;;;;;9.20;2.50;;;;;;;8.36;69.55;98294.97;8451217;28;20402;-68
2023/02/02 10:56:59;;;;;;;7.20;2.40;;;;;;;8.52;69.32;98292.78;8450918;28;20232;-67
2023/02/02 11:01:06;;;;;;;6.67;2.43;;;;;;;8.47;68.95;98296.38;8451001;28;20244;-67
2023/02/02 11:09:38;;;;;;;7.27;2.30;;;;;;;8.14;69.62;98260.38;8450584;28;20223;-67
2023/02/02 11:13:43;;;;;;;5.97;2.07;;;;;;;8.55;69.27;98287.53;8450668;28;20405;-67
2023/02/02 11:17:47;;;;;;;6.07;2.30;;;;;;;8.34;70.33;98295.88;8450068;28;20220;-67
2023/02/02 11:21:51;;;;;;;7.97;2.87;;;;;;;8.52;70.30;98291.94;8450093;28;20527;-67
2023/02/02 11:25:59;;;;;;;5.80;2.50;;;;;;;8.52;69.43;98291.94;8450129;28;20432;-67
2023/02/02 11:30:17;;;;;;;6.03;2.20;;;;;;;8.41;69.63;98302.56;8450077;28;20235;-67
2023/02/02 11:34:24;;;;;;;9.07;2.20;;;;;;;8.44;70.59;98299.91;8449671;28;20269;-67
2023/02/02 11:38:27;;;;;;;8.53;2.10;;;;;;;8.39;70.37;98299.16;8449876;28;20223;-67
2023/02/02 11:42:30;;;;;;;7.13;2.53;;;;;;;8.38;70.44;98300.91;8449513;28;20235;-67
2023/02/02 11:46:37;;;;;;;8.00;2.40;;;;;;;8.23;70.84;98288.47;8449622;28;20220;-67
2023/02/02 11:50:45;;;;;;;7.67;2.20;;;;;;;8.46;69.77;98258.59;8449592;28;20517;-67
2023/02/02 11:54:49;;;;;;;5.83;2.17;;;;;;;8.36;70.68;98292.38;8448280;28;20247;-67
2023/02/02 11:58:54;;;;;;;7.97;1.70;;;;;;;8.51;70.12;98279.91;8449169;28;20421;-67
2023/02/02 12:02:57;;;;;;;8.27;2.03;;;;;;;8.50;69.92;98283.41;8448906;28;20515;-67
2023/02/02 12:07:02;;;;;;;7.50;2.17;;;;;;;8.59;69.80;98289.13;8448743;28;20236;-67
2023/02/02 12:11:06;;;;;;;5.80;2.20;;;;;;;8.61;69.93;98292.50;8448779;28;20227;-67
2023/02/02 12:15:20;;;;;;;5.23;2.00;;;;;;;8.51;70.10;98287.66;8448687;28;20535;-67
2023/02/02 12:19:37;;;;;;;4.00;1.80;;;;;;;8.87;69.60;98300.31;8448580;28;20224;-68
2023/02/02 12:23:53;;;;;;;8.07;1.87;;;;;;;8.63;70.10;98292.47;8448416;28;20228;-68
2023/02/02 12:28:01;;;;;;;6.27;2.33;;;;;;;8.94;69.49;98297.47;8447841;28;20227;-68
2023/02/02 12:32:14;;;;;;;4.33;2.00;;;;;;;8.66;70.53;98312.16;8447958;28;20228;-68
2023/02/02 12:36:27;;;;;;;6.23;2.07;;;;;;;8.63;69.98;98320.03;8381089;28;20228;-68
2023/02/02 12:40:42;;;;;;;5.47;1.90;;;;;;;9.00;69.71;98307.63;8380923;28;20232;-68
2023/02/02 12:44:55;;;;;;;4.63;1.80;;;;;;;8.80;69.23;98315.16;8380585;28;20217;-68
2023/02/02 12:49:12;;;;;;;4.83;1.80;;;;;;;9.42;74.31;98324.31;8380601;28;20225;-68
2023/02/02 12:53:24;;;;;;;6.33;1.87;;;;;;;9.15;68.93;98331.25;8380643;28;20225;-67
2023/02/02 12:57:42;;;;;;;5.00;1.83;;;;;;;9.06;68.53;98337.56;8379861;28;20229;-68
2023/02/02 13:01:53;;;;;;;5.23;1.73;;;;;;;9.09;68.90;98340.06;8380305;28;20231;-68
2023/02/02 13:06:05;;;;;;;4.23;1.57;;;;;;;9.00;69.12;98338.63;8380210;28;20618;-68
2023/02/02 13:10:23;;;;;;;4.73;1.50;;;;;;;9.10;68.27;98344.34;8379759;28;20233;-68
2023/02/02 13:14:30;;;;;;;5.77;1.50;;;;;;;8.74;68.84;98329.13;8379987;28;20221;-68
2023/02/02 13:18:37;;;;;;;3.93;1.60;;;;;;;8.80;69.06;98349.56;8380197;28;20229;-67
2023/02/02 13:22:42;;;;;;;3.37;1.50;;;;;;;8.70;69.83;98352.47;8380140;28;20229;-67
2023/02/02 13:26:46;;;;;;;3.03;1.60;;;;;;;8.85;68.91;98356.34;8379156;28;20220;-68
2023/02/02 13:30:52;;;;;;;4.23;1.63;;;;;;;8.89;68.54;98365.66;8379297;28;20233;-67
2023/02/02 13:34:59;;;;;;;5.30;1.67;;;;;;;9.00;68.68;98355.84;8423412;28;20531;-68
2023/02/02 13:39:08;;;;;;;4.13;1.77;;;;;;;9.10;68.82;98353.81;8446051;28;20230;-69
2023/02/02 13:43:25;;;;;;;4.30;1.97;;;;;;;8.97;69.47;98363.72;8445674;28;20228;-68
2023/02/02 13:47:36;;;;;;;3.67;1.60;;;;;;;8.75;69.26;98322.22;8445372;28;20234;-68
2023/02/02 13:52:15;;;;;;;4.13;1.80;;;;;;;9.18;68.22;98357.00;8445242;28;20236;-68
2023/02/02 13:56:31;;;;;;;4.33;1.63;;;;;;;8.91;68.61;98364.75;8444570;28;20222;-68
2023/02/02 14:00:35;;;;;;;4.80;1.23;;;;;;;8.90;69.57;98388.88;8445045;28;20698;-67
2023/02/02 14:04:40;;;;;;;3.30;1.50;;;;;;;8.81;70.01;98396.91;8444910;28;20419;-68
2023/02/02 14:08:46;;;;;;;4.20;1.50;;;;;;;9.01;68.75;98388.56;8444356;28;20234;-67
2023/02/02 14:12:52;;;;;;;4.30;1.70;;;;;;;8.98;69.25;98394.63;8444374;28;20522;-68
2023/02/02 14:16:55;;;;;;;4.23;1.50;;;;;;;9.06;68.45;98368.56;8444744;28;20236;-67
2023/02/02 14:20:59;;;;;;;5.00;1.63;;;;;;;8.78;69.14;98395.25;8444218;28;20235;-67
2023/02/02 14:25:02;;;;;;;3.03;1.50;;;;;;;8.83;70.28;98422.69;8444413;28;20223;-68
2023/02/02 14:29:35;;;;;;;3.20;1.40;;;;;;;8.93;69.43;98430.13;8444290;28;20233;-68
2023/02/02 14:33:46;;;;;;;4.77;1.80;;;;;;;8.68;70.10;98444.63;8444179;28;20227;-69
2023/02/02 14:37:53;;;;;;;4.87;2.23;;;;;;;8.34;71.61;98454.16;8443881;28;20218;-69
2023/02/02 14:46:48;;;;;;;1.40;1.30;;;;;;;8.03;65.89;98462.72;8444122;28;20219;-69
2023/02/02 14:50:52;;;;;;;1.00;1.00;;;;;;;7.79;66.20;98447.88;8443350;28;20222;-68
2023/02/02 14:54:57;;;;;;;2.63;1.30;;;;;;;8.08;65.55;98475.50;8443935;28;20231;-69
2023/02/02 14:59:01;;;;;;;1.00;1.00;;;;;;;6.28;64.41;98262.59;8443631;28;20238;-68
2023/02/02 15:03:53;;;;;;;1.43;1.33;;;;;;;7.89;64.16;98488.00;8444100;28;20232;-68
2023/02/02 15:08:07;;;;;;;1.50;1.40;;;;;;;6.68;64.93;98382.66;8439028;28;20227;-68
2023/02/02 15:12:38;;;;;;;1.00;0.90;;;;;;;6.51;67.45;98509.09;8443780;28;20515;-68
2023/02/02 15:16:42;;;;;;;1.60;1.60;;;;;;;7.17;65.59;98512.91;8441911;28;20254;-68
2023/02/02 15:20:47;;;;;;;1.40;1.30;;;;;;;7.28;64.76;98515.25;8443090;28;20223;-67
2023/02/02 15:24:51;;;;;;;1.03;1.03;;;;;;;7.57;64.65;98530.03;8443529;28;20223;-67
2023/02/02 15:29:00;;;;;;;0.90;0.90;;;;;;;7.44;64.83;98520.03;8443851;28;20231;-67
2023/02/02 15:33:06;;;;;;;4.60;3.30;;;;;;;7.57;64.34;98541.19;8449033;28;20239;-67
2023/02/02 15:37:14;;;;;;;6.87;4.13;;;;;;;7.37;63.80;98546.81;8449752;28;20230;-67
2023/02/02 15:41:20;;;;;;;6.80;4.37;;;;;;;7.63;63.70;98564.28;8449498;28;20228;-67
2023/02/02 15:45:36;;;;;;;3.37;3.00;;;;;;;7.86;62.78;98568.03;8449445;28;20227;-67
2023/02/02 15:49:40;;;;;;;3.47;3.17;;;;;;;7.79;62.60;98561.34;8449348;28;20223;-67
2023/02/02 15:53:48;;;;;;;3.20;2.60;;;;;;;7.91;62.63;98585.97;8448859;28;20222;-67
2023/02/02 15:57:54;;;;;;;1.47;1.30;;;;;;;7.55;62.85;98578.22;8448601;28;20291;-67
2023/02/02 16:02:06;;;;;;;2.27;1.80;;;;;;;7.83;62.56;98593.91;8448315;28;20549;-67
2023/02/02 16:06:09;;;;;;;1.77;1.57;;;;;;;7.74;62.29;98591.53;8448322;28;20231;-67
2023/02/02 16:10:18;;;;;;;1.70;1.60;;;;;;;7.80;62.25;98581.91;8448421;28;20644;-68
2023/02/02 16:14:22;;;;;;;1.30;1.20;;;;;;;7.65;63.11;98608.03;8448637;28;20250;-67
2023/02/02 16:18:27;;;;;;;1.90;1.80;;;;;;;7.81;62.75;98611.97;8448435;28;20261;-67
2023/02/02 16:22:30;;;;;;;2.57;2.37;;;;;;;7.86;62.19;98624.75;8448310;28;20710;-67
2023/02/02 16:26:35;;;;;;;1.87;1.77;;;;;;;7.93;62.37;98635.78;8448344;28;20228;-67
2023/02/02 16:30:38;;;;;;;1.63;1.43;;;;;;;7.78;62.17;98632.66;8448268;28;20223;-67
2023/02/02 16:34:46;;;;;;;1.80;1.70;;;;;;;7.82;62.12;98641.19;8447661;28;20221;-68
2023/02/02 16:38:51;;;;;;;1.50;1.40;;;;;;;7.82;62.58;98654.06;8447980;28;20223;-67
2023/02/02 16:43:04;;;;;;;1.43;1.33;;;;;;;7.75;61.78;98653.38;8447739;28;20234;-67
2023/02/02 16:47:08;;;;;;;2.60;1.67;;;;;;;7.68;62.82;98664.69;8447972;28;20540;-67
2023/02/02 16:51:25;;;;;;;3.30;2.73;;;;;;;7.56;62.78;98680.44;8447612;28;20233;-67
2023/02/02 16:55:30;;;;;;;2.30;2.10;;;;;;;7.64;62.87;98679.38;8447547;28;20549;-67
2023/02/02 16:59:53;;;;;;;1.90;1.80;;;;;;;7.59;62.85;98690.66;8447011;28;20587;-67
2023/02/02 17:03:55;;;;;;;1.40;1.30;;;;;;;7.61;63.32;98696.63;8446945;28;20423;-67
2023/02/02 17:08:03;;;;;;;6.00;5.40;;;;;;;7.54;62.71;98698.50;8446526;28;20547;-67
2023/02/02 17:12:22;;;;;;;2.53;2.33;;;;;;;7.46;63.38;98721.00;8445179;28;20405;-67
2023/02/02 17:16:36;;;;;;;2.10;2.00;;;;;;;7.79;62.35;98727.19;8447052;28;20224;-67
2023/02/02 17:20:40;;;;;;;1.70;1.60;;;;;;;7.39;63.23;98728.00;8446631;28;20228;-67
2023/02/02 17:24:47;;;;;;;1.80;1.70;;;;;;;7.47;63.17;98730.44;8445668;28;20421;-67
2023/02/02 17:28:55;;;;;;;2.17;2.07;;;;;;;7.70;62.58;98724.81;8446313;28;20230;-67
2023/02/02 17:32:58;;;;;;;1.90;1.80;;;;;;;7.74;62.72;98735.91;8445886;28;20431;-67
2023/02/02 17:37:00;;;;;;;1.70;1.60;;;;;;;7.85;62.42;98740.84;8445965;28;20606;-66
2023/02/02 17:41:05;;;;;;;2.50;2.30;;;;;;;7.70;63.06;98742.84;8445992;28;20228;-66
2023/02/02 17:45:13;;;;;;;2.73;2.53;;;;;;;7.82;62.46;98744.31;8445735;28;20238;-67
2023/02/02 17:49:19;;;;;;;2.20;2.10;;;;;;;7.73;61.93;98754.81;8445666;28;20223;-67
2023/02/02 17:53:22;;;;;;;2.00;1.90;;;;;;;7.82;62.43;98763.25;8445025;28;20341;-67
2023/02/02 17:57:26;;;;;;;2.37;2.20;;;;;;;7.64;62.97;98763.63;8444971;28;20227;-67
2023/02/02 18:01:29;;;;;;;2.60;2.40;;;;;;;7.40;63.88;98770.91;8445280;28;20479;-68
2023/02/02 18:05:32;;;;;;;4.80;3.23;;;;;;;7.11;65.26;98771.47;8444935;28;20414;-68
2023/02/02 18:09:35;;;;;;;2.13;2.03;;;;;;;6.76;65.79;98752.31;8445370;28;20224;-67
2023/02/02 18:13:41;;;;;;;2.70;2.50;;;;;;;7.33;63.48;98766.78;8445277;28;20234;-67
2023/02/02 18:17:44;;;;;;;2.50;2.40;;;;;;;7.62;63.39;98765.38;8444862;28;20230;-68
2023/02/02 18:21:46;;;;;;;4.87;3.70;;;;;;;7.30;64.72;98766.00;8444848;28;20223;-67
2023/02/02 18:25:51;;;;;;;3.90;3.60;;;;;;;7.63;63.31;98773.09;8444404;28;20228;-68
2023/02/02 18:29:55;;;;;;;17.80;11.17;;;;;;;7.64;63.70;98776.50;8445025;28;20390;-68
2023/02/02 18:33:58;;;;;;;5.53;5.03;;;;;;;7.52;64.02;98779.31;8444760;28;20240;-68
2023/02/02 18:38:01;;;;;;;3.10;2.90;;;;;;;7.19;65.06;98774.75;8444692;28;20434;-68
2023/02/02 18:42:04;;;;;;;6.63;6.00;;;;;;;7.55;63.89;98774.94;8444379;28;20426;-68
2023/02/02 18:46:12;;;;;;;6.57;5.97;;;;;;;7.46;63.66;98767.38;8444526;28;20235;-68
2023/02/02 18:50:15;;;;;;;4.80;4.47;;;;;;;7.21;64.74;98779.88;8444367;28;20545;-67
2023/02/02 18:54:19;;;;;;;4.27;3.93;;;;;;;6.91;66.16;98774.38;8444339;28;20234;-67
2023/02/02 18:58:21;;;;;;;6.10;5.70;;;;;;;7.03;66.43;98775.91;8444290;28;20224;-67
2023/02/02 19:02:26;;;;;;;4.77;3.03;;;;;;;10.15;69.46;98780.75;8443778;28;20234;-68
2023/02/02 19:10:50;;;;;;;8.33;7.63;;;;;;;7.73;63.63;98753.13;8450362;28;20401;-67
2023/02/02 19:14:53;;;;;;;12.77;11.53;;;;;;;7.46;64.60;98792.31;8450735;28;20555;-67
2023/02/02 19:18:58;;;;;;;9.67;8.77;;;;;;;7.15;65.34;98782.56;8450608;28;20231;-66
2023/02/02 19:23:06;;;;;;;7.37;5.53;;;;;;;7.47;66.94;98794.03;8450096;28;20293;-67
2023/02/02 19:27:15;;;;;;;9.10;8.40;;;;;;;7.46;63.92;98790.56;8450334;28;20223;-67
2023/02/02 19:31:18;;;;;;;12.00;10.83;;;;;;;7.51;64.46;98790.50;8450451;28;20511;-67
2023/02/02 19:35:24;;;;;;;27.90;23.63;;;;;;;7.00;66.98;98783.66;8450190;28;20290;-67
2023/02/02 19:39:30;;;;;;;18.00;15.20;;;;;;;7.53;64.82;98775.84;8449968;28;20553;-66
2023/02/02 19:43:35;;;;;;;28.33;23.50;;;;;;;7.38;66.46;98770.09;8449817;28;20291;-67
2023/02/02 19:47:39;;;;;;;16.10;14.50;;;;;;;7.38;66.95;98780.41;8449817;28;20519;-67
2023/02/02 19:51:45;;;;;;;15.83;14.33;;;;;;;7.54;66.15;98788.72;8449162;28;20532;-67
2023/02/02 19:55:48;;;;;;;20.53;18.43;;;;;;;6.44;68.99;98789.69;8449516;28;20264;-67
2023/02/02 19:59:52;;;;;;;20.83;18.93;;;;;;;7.30;67.43;98795.16;8449497;28;20227;-67